Time;durP1;ratioP1;P1;durP2;ratioP2;P2;SDS_P1;SDS_P2;PMS_P1;PMS_P2;Temp;Humidity;BMP_temperature;BMP_pressure;BME280_temperature;BME280_humidity;BME280_pressure;Samples;Min_cycle;Max_cycle;Signal;HPM_P1;HPM_P2
2022/06/05 00:01:33;;;;;;;6.85;4.07;;;27.20;92.70;;;;;;5053688;28;20577;-83
2022/06/05 00:04:31;;;;;;;8.10;3.95;;;27.20;92.80;;;;;;5053482;28;20051;-84
2022/06/05 00:07:12;;;;;;;6.82;4.25;;;27.10;93.10;;;;;;5054054;28;20071;-84
2022/06/05 00:10:02;;;;;;;8.75;4.10;;;27.10;93.50;;;;;;5053481;28;20465;-83
2022/06/05 00:12:52;;;;;;;5.75;4.00;;;27.10;93.80;;;;;;5053428;28;20498;-85
2022/06/05 00:15:20;;;;;;;10.82;3.90;;;27.00;94.00;;;;;;5071359;28;20049;-83
2022/06/05 00:17:48;;;;;;;5.78;4.10;;;27.00;94.10;;;;;;5036029;28;20064;-86
2022/06/05 00:20:16;;;;;;;6.55;4.40;;;27.00;94.20;;;;;;5053484;28;20047;-83
2022/06/05 00:22:44;;;;;;;6.32;3.95;;;27.00;94.10;;;;;;5036188;28;20060;-82
2022/06/05 00:25:13;;;;;;;6.28;4.57;;;27.00;93.90;;;;;;5068859;28;20037;-85
2022/06/05 00:27:49;;;;;;;5.40;4.00;;;26.90;93.70;;;;;;5036476;28;20060;-83
2022/06/05 00:30:41;;;;;;;6.60;4.85;;;26.90;93.60;;;;;;5069885;28;20056;-83
2022/06/05 00:33:16;;;;;;;8.95;4.10;;;26.80;93.50;;;;;;5053457;28;20048;-84
2022/06/05 00:36:04;;;;;;;;;;;26.80;93.40;;;;;;5053638;28;20044;-85
2022/06/05 00:38:44;;;;;;;6.68;3.70;;;26.80;93.50;;;;;;5069777;28;20058;-86
2022/06/05 00:41:44;;;;;;;4.97;3.80;;;26.80;93.50;;;;;;5053350;28;20052;-85
2022/06/05 00:44:17;;;;;;;8.27;5.10;;;26.80;93.50;;;;;;5052229;28;20045;-85
2022/06/05 00:46:46;;;;;;;6.88;4.07;;;26.70;93.50;;;;;;5053044;28;20052;-85
2022/06/05 00:49:14;;;;;;;5.72;3.92;;;26.70;93.50;;;;;;5067363;28;20486;-85
2022/06/05 00:51:42;;;;;;;7.78;4.13;;;26.70;93.40;;;;;;5036452;28;20171;-85
2022/06/05 00:54:09;;;;;;;7.93;4.13;;;26.70;93.40;;;;;;5052862;28;20051;-84
2022/06/05 00:56:38;;;;;;;7.30;4.95;;;26.70;93.40;;;;;;5036084;28;20048;-84
2022/06/05 00:59:07;;;;;;;6.43;3.90;;;26.70;93.70;;;;;;5036416;28;20390;-84
2022/06/05 01:01:34;;;;;;;12.57;5.43;;;26.70;94.20;;;;;;5052728;28;20460;-84
2022/06/05 01:04:02;;;;;;;10.55;5.68;;;26.70;94.90;;;;;;5052537;28;20097;-84
2022/06/05 01:06:30;;;;;;;8.25;4.97;;;26.60;95.20;;;;;;5052359;28;20060;-84
2022/06/05 01:08:58;;;;;;;8.00;4.07;;;26.60;95.60;;;;;;5069444;28;20498;-85
2022/06/05 01:11:37;;;;;;;6.15;4.53;;;26.70;95.90;;;;;;5070333;28;20047;-85
2022/06/05 01:14:08;;;;;;;7.10;4.85;;;26.70;96.20;;;;;;5052807;28;20501;-85
2022/06/05 01:16:46;;;;;;;7.07;4.53;;;26.60;96.60;;;;;;5051983;28;20068;-85
2022/06/05 01:19:40;;;;;;;5.78;4.28;;;26.70;96.50;;;;;;5052250;28;20048;-85
2022/06/05 01:22:25;;;;;;;8.10;4.53;;;26.60;96.50;;;;;;5035851;28;20045;-85
2022/06/05 01:25:23;;;;;;;7.47;4.17;;;26.60;96.60;;;;;;5052210;28;20147;-85
2022/06/05 01:27:57;;;;;;;7.75;4.40;;;26.60;96.80;;;;;;5052327;28;20066;-85
2022/06/05 01:30:25;;;;;;;7.43;4.68;;;26.60;97.20;;;;;;5069423;28;20445;-85
2022/06/05 01:32:53;;;;;;;18.02;4.75;;;26.60;97.40;;;;;;5050444;28;20047;-86
2022/06/05 01:35:53;;;;;;;6.55;4.30;;;26.50;97.50;;;;;;5036053;28;20145;-85
2022/06/05 01:38:40;;;;;;;5.65;4.55;;;26.50;97.70;;;;;;5050360;28;20072;-84
2022/06/05 01:41:13;;;;;;;9.52;5.15;;;26.60;97.80;;;;;;5052373;28;20537;-81
2022/06/05 01:43:46;;;;;;;8.10;4.38;;;26.60;97.80;;;;;;5052335;28;20040;-83
2022/06/05 01:46:21;;;;;;;8.45;4.38;;;26.60;97.80;;;;;;5035684;28;20437;-80
2022/06/05 01:49:25;;;;;;;5.85;4.45;;;26.60;97.80;;;;;;5036012;28;20056;-82
2022/06/05 01:51:56;;;;;;;10.02;5.20;;;26.60;97.80;;;;;;5051484;28;20118;-82
2022/06/05 01:54:33;;;;;;;8.55;4.65;;;26.50;97.70;;;;;;5050910;28;20056;-83
2022/06/05 03:11:58;;;;;;;6.78;4.85;;;26.40;98.00;;;;;;5071038;28;20063;-82
2022/06/05 03:14:25;;;;;;;6.22;4.72;;;26.40;98.00;;;;;;5054383;28;20114;-83
2022/06/05 03:16:53;;;;;;;9.48;4.47;;;26.40;98.00;;;;;;5054730;28;20366;-80
2022/06/05 03:19:22;;;;;;;6.88;4.72;;;26.40;97.90;;;;;;5054597;28;20494;-80
2022/06/05 03:21:49;;;;;;;10.35;4.80;;;26.40;97.70;;;;;;5054149;28;20049;-80
2022/06/05 03:34:00;;;;;;;8.20;4.68;;;26.30;97.30;;;;;;5050961;28;20037;-79
2022/06/05 03:36:28;;;;;;;7.40;4.72;;;26.30;97.40;;;;;;5034259;28;20098;-79
2022/06/05 03:38:56;;;;;;;6.00;4.70;;;26.30;97.20;;;;;;5051083;28;20411;-79
2022/06/05 03:41:23;;;;;;;6.43;3.65;;;26.30;97.00;;;;;;5017709;28;20041;-80
2022/06/05 03:43:51;;;;;;;6.53;4.10;;;26.30;96.70;;;;;;5050866;28;20045;-79
2022/06/05 03:46:18;;;;;;;8.57;4.85;;;26.30;96.50;;;;;;5017359;28;20094;-79
2022/06/05 03:48:46;;;;;;;6.15;4.50;;;26.40;96.30;;;;;;5050477;28;20156;-79
2022/06/05 03:51:17;;;;;;;4.93;3.60;;;26.40;95.90;;;;;;5050145;28;20055;-79
2022/06/05 03:53:46;;;;;;;6.32;4.32;;;26.50;95.60;;;;;;5050550;28;20156;-78
2022/06/05 03:56:18;;;;;;;5.30;3.45;;;26.50;95.50;;;;;;5050563;28;20052;-79
2022/06/05 03:58:48;;;;;;;7.03;4.10;;;26.60;95.50;;;;;;5033784;28;20045;-79
2022/06/05 04:10:40;;;;;;;9.73;4.47;;;26.80;95.00;;;;;;5043003;28;20207;-79
2022/06/05 04:13:08;;;;;;;6.40;3.85;;;26.90;94.70;;;;;;5033802;28;20136;-79
2022/06/05 04:15:39;;;;;;;5.18;3.88;;;26.90;94.50;;;;;;5050240;28;20039;-79
2022/06/05 04:18:07;;;;;;;6.32;3.55;;;27.00;94.40;;;;;;5033761;28;20041;-79
2022/06/05 04:20:38;;;;;;;8.25;3.72;;;27.10;94.30;;;;;;5033050;28;20449;-79
2022/06/05 04:23:08;;;;;;;4.85;2.60;;;27.20;94.10;;;;;;5033609;28;20060;-79
2022/06/05 04:25:36;;;;;;;5.00;3.17;;;27.30;94.10;;;;;;5052835;28;20076;-79
2022/06/05 04:28:06;;;;;;;5.90;3.83;;;27.30;93.90;;;;;;5037136;28;20056;-79
2022/06/05 04:30:40;;;;;;;5.88;3.55;;;27.40;93.90;;;;;;5035901;28;20083;-79
2022/06/05 04:33:07;;;;;;;5.55;3.40;;;27.50;93.80;;;;;;5036836;28;20129;-78
2022/06/05 04:35:36;;;;;;;8.95;4.25;;;27.60;93.60;;;;;;5052872;28;20490;-79
2022/06/05 04:38:04;;;;;;;6.13;3.80;;;27.70;93.40;;;;;;5036767;28;20060;-79
2022/06/05 04:40:31;;;;;;;6.43;3.85;;;27.80;93.30;;;;;;5052484;28;20143;-79
2022/06/05 04:42:59;;;;;;;7.22;4.07;;;27.90;93.10;;;;;;5053158;28;20135;-80
2022/06/05 04:45:26;;;;;;;8.68;3.63;;;28.00;93.10;;;;;;5036274;28;20051;-80
2022/06/05 04:47:54;;;;;;;5.38;3.47;;;28.10;93.00;;;;;;5053059;28;20146;-79
2022/06/05 04:50:21;;;;;;;4.97;4.03;;;28.20;93.00;;;;;;5036181;28;20040;-80
2022/06/05 04:52:49;;;;;;;6.78;3.30;;;28.30;93.00;;;;;;5052902;28;20417;-80
2022/06/05 04:55:16;;;;;;;10.38;3.28;;;28.40;93.00;;;;;;5070259;28;20160;-80
2022/06/05 04:57:44;;;;;;;5.10;3.08;;;28.50;93.20;;;;;;5052825;28;20053;-79
2022/06/05 05:00:12;;;;;;;7.10;3.28;;;28.50;92.90;;;;;;5069173;28;20554;-79
2022/06/05 05:02:39;;;;;;;5.65;2.95;;;28.70;92.80;;;;;;5069967;28;20043;-80
2022/06/05 05:05:07;;;;;;;6.38;3.08;;;28.80;92.60;;;;;;5070227;28;20048;-79
2022/06/05 05:07:35;;;;;;;6.43;3.30;;;28.80;92.30;;;;;;5053137;28;20423;-80
2022/06/05 05:10:03;;;;;;;6.10;2.65;;;28.90;92.00;;;;;;5069192;28;20079;-81
2022/06/05 05:12:30;;;;;;;6.07;2.95;;;29.00;91.80;;;;;;5035223;28;20063;-80
2022/06/05 05:14:58;;;;;;;5.47;3.50;;;29.10;91.50;;;;;;5070566;28;20123;-80
2022/06/05 05:17:25;;;;;;;6.78;2.92;;;29.20;91.30;;;;;;5070173;28;20117;-80
2022/06/05 05:19:55;;;;;;;3.88;2.80;;;29.30;90.90;;;;;;5032545;28;20055;-80
2022/06/05 05:22:23;;;;;;;4.65;2.72;;;29.40;90.80;;;;;;5016159;28;20047;-81
2022/06/05 05:24:50;;;;;;;7.38;3.55;;;29.60;90.60;;;;;;5032483;28;20088;-81
2022/06/05 05:27:20;;;;;;;5.80;2.97;;;29.60;90.40;;;;;;5032426;28;20526;-82
2022/06/05 05:29:47;;;;;;;5.75;3.42;;;29.70;90.20;;;;;;5032726;28;20597;-81
2022/06/05 05:32:15;;;;;;;9.18;4.25;;;29.90;90.10;;;;;;5048702;28;20521;-80
2022/06/05 05:34:42;;;;;;;11.95;4.10;;;29.90;89.80;;;;;;5031997;28;20508;-80
2022/06/05 05:37:13;;;;;;;5.18;3.35;;;30.00;89.60;;;;;;5048654;28;20060;-80
2022/06/05 05:42:33;;;;;;;6.35;3.55;;;30.20;89.50;;;;;;5048087;28;20039;-80
2022/06/05 05:45:01;;;;;;;11.43;3.70;;;30.30;89.00;;;;;;5048346;28;20739;-80
2022/06/05 05:47:31;;;;;;;5.55;3.47;;;30.50;88.50;;;;;;5048741;28;20063;-80
2022/06/05 05:50:06;;;;;;;7.57;3.97;;;30.60;87.80;;;;;;5032115;28;20044;-82
2022/06/05 05:52:35;;;;;;;6.13;3.70;;;30.70;86.50;;;;;;5035163;28;20125;-81
2022/06/05 05:55:04;;;;;;;9.07;4.78;;;30.80;86.10;;;;;;5052497;28;20549;-82
2022/06/05 05:57:39;;;;;;;;;;;30.80;86.00;;;;;;5050057;28;20069;-82
2022/06/05 06:00:09;;;;;;;7.15;3.95;;;30.90;85.60;;;;;;5049094;28;20297;-82
2022/06/05 06:02:37;;;;;;;8.93;4.18;;;31.10;85.40;;;;;;5032127;28;20041;-82
2022/06/05 06:05:06;;;;;;;6.97;3.20;;;31.20;85.30;;;;;;5032380;28;20144;-82
2022/06/05 06:07:35;;;;;;;6.05;3.45;;;31.30;85.00;;;;;;5048475;28;20057;-82
2022/06/05 06:10:04;;;;;;;8.05;3.75;;;31.40;84.90;;;;;;5051372;28;20060;-82
2022/06/05 06:12:31;;;;;;;11.38;3.80;;;31.50;84.70;;;;;;5048392;28;20242;-82
2022/06/05 06:14:59;;;;;;;7.63;2.97;;;31.60;84.00;;;;;;5065709;28;20095;-82
2022/06/05 06:17:27;;;;;;;6.07;2.88;;;31.50;82.80;;;;;;5035670;28;20056;-82
2022/06/05 06:19:54;;;;;;;4.75;3.13;;;31.60;83.10;;;;;;5052682;28;20495;-82
2022/06/05 06:22:22;;;;;;;6.30;2.75;;;31.60;82.40;;;;;;5068695;28;20053;-82
2022/06/05 06:24:49;;;;;;;7.43;3.15;;;31.60;82.40;;;;;;5052558;28;20040;-82
2022/06/05 06:27:17;;;;;;;3.70;2.47;;;31.80;83.00;;;;;;5068669;28;20064;-82
2022/06/05 06:29:46;;;;;;;7.47;2.90;;;31.70;82.20;;;;;;5068542;28;20418;-82
2022/06/05 06:32:14;;;;;;;5.10;2.35;;;31.90;81.70;;;;;;5035316;28;20064;-82
2022/06/05 06:34:41;;;;;;;5.97;2.63;;;31.90;81.00;;;;;;5051702;28;20168;-82
2022/06/05 06:37:09;;;;;;;5.25;2.30;;;31.90;79.60;;;;;;5051815;28;20598;-83
2022/06/05 06:39:37;;;;;;;3.83;2.45;;;31.90;78.30;;;;;;5051782;28;20049;-83
2022/06/05 06:42:04;;;;;;;6.07;3.03;;;31.90;78.30;;;;;;5052245;28;20045;-83
2022/06/05 06:44:32;;;;;;;5.50;2.35;;;31.90;78.40;;;;;;5068545;28;20041;-82
2022/06/05 06:46:59;;;;;;;4.47;2.17;;;32.00;78.00;;;;;;5051926;28;20045;-82
2022/06/05 06:49:27;;;;;;;8.18;2.83;;;32.10;77.90;;;;;;5051632;28;20045;-82
2022/06/05 06:51:55;;;;;;;6.18;2.80;;;32.10;77.00;;;;;;5051524;28;20063;-81
2022/06/05 06:54:22;;;;;;;6.28;2.65;;;32.10;76.30;;;;;;5034417;28;20128;-80
2022/06/05 06:56:50;;;;;;;4.50;2.40;;;32.20;75.90;;;;;;5042520;28;20049;-82
2022/06/05 06:59:18;;;;;;;5.35;2.17;;;32.30;75.90;;;;;;5035286;28;20048;-82
2022/06/05 07:01:46;;;;;;;4.35;2.33;;;32.40;76.10;;;;;;5051828;28;20667;-82
2022/06/05 07:04:15;;;;;;;7.57;2.38;;;32.40;75.70;;;;;;5051517;28;20072;-82
2022/06/05 07:06:44;;;;;;;4.78;2.10;;;32.50;75.90;;;;;;5035456;28;20499;-81
2022/06/05 07:09:14;;;;;;;4.45;2.20;;;32.40;74.90;;;;;;5051344;28;20045;-83
2022/06/05 07:11:45;;;;;;;4.35;2.13;;;32.50;74.70;;;;;;5034520;28;20064;-83
2022/06/05 07:14:12;;;;;;;7.25;2.30;;;32.70;74.70;;;;;;5051264;28;20040;-84
2022/06/05 07:16:40;;;;;;;5.20;2.55;;;32.80;74.60;;;;;;5018415;28;20502;-84
2022/06/05 07:19:08;;;;;;;8.15;3.03;;;33.00;74.80;;;;;;5051014;28;20053;-80
2022/06/05 07:21:36;;;;;;;9.60;3.42;;;33.00;75.00;;;;;;5018546;28;20078;-83
2022/06/05 07:24:04;;;;;;;8.15;2.33;;;33.00;74.20;;;;;;5051884;28;20152;-82
2022/06/05 07:26:33;;;;;;;6.85;2.30;;;33.10;73.90;;;;;;5017986;28;20143;-83
2022/06/05 07:29:01;;;;;;;6.22;2.10;;;33.10;73.00;;;;;;5052134;28;20095;-83
2022/06/05 07:31:29;;;;;;;4.22;2.33;;;33.10;73.00;;;;;;5051391;28;20049;-81
2022/06/05 07:34:00;;;;;;;6.35;2.55;;;33.10;75.10;;;;;;5035159;28;20060;-84
2022/06/05 07:36:29;;;;;;;5.72;2.65;;;33.20;75.10;;;;;;5018203;28;20053;-82
2022/06/05 07:38:57;;;;;;;5.43;2.65;;;33.10;73.80;;;;;;5051478;28;20114;-82
2022/06/05 07:41:29;;;;;;;4.75;2.22;;;33.10;73.60;;;;;;5051141;28;20052;-80
2022/06/05 07:43:59;;;;;;;5.00;2.05;;;33.00;73.00;;;;;;5018318;28;20052;-81
2022/06/05 07:46:28;;;;;;;6.95;2.47;;;33.20;72.90;;;;;;5049997;28;20172;-80
2022/06/05 07:48:56;;;;;;;4.38;2.65;;;33.20;73.10;;;;;;5050640;28;20087;-80
2022/06/05 07:54:33;;;;;;;8.65;2.53;;;33.30;72.30;;;;;;5051572;28;20053;-81
2022/06/05 07:57:13;;;;;;;5.90;1.90;;;33.40;71.90;;;;;;5058980;28;20611;-85
2022/06/05 07:59:43;;;;;;;8.50;2.83;;;33.50;71.00;;;;;;5071399;28;20568;-80
2022/06/05 08:02:14;;;;;;;5.95;3.00;;;33.60;70.70;;;;;;5070192;28;20040;-80
2022/06/05 08:04:43;;;;;;;8.25;2.00;;;33.60;69.90;;;;;;5054131;28;20578;-80
2022/06/05 08:07:16;;;;;;;3.97;1.83;;;33.60;69.90;;;;;;5054039;28;20110;-80
2022/06/05 08:09:44;;;;;;;3.97;1.75;;;33.70;69.50;;;;;;5070444;28;20494;-81
2022/06/05 08:12:14;;;;;;;5.25;1.83;;;33.70;68.80;;;;;;5053482;28;20048;-80
2022/06/05 08:14:44;;;;;;;5.70;1.95;;;33.80;68.70;;;;;;5053712;28;20079;-81
2022/06/05 08:17:16;;;;;;;7.50;2.03;;;33.80;68.60;;;;;;5070089;28;20047;-81
2022/06/05 08:19:45;;;;;;;8.65;2.72;;;33.90;68.40;;;;;;5053742;28;20056;-81
2022/06/05 08:22:15;;;;;;;7.15;2.25;;;33.80;69.20;;;;;;5070176;28;20410;-81
2022/06/05 08:24:43;;;;;;;5.13;2.30;;;33.90;69.00;;;;;;5053645;28;20122;-80
2022/06/05 08:27:13;;;;;;;4.35;2.22;;;34.00;69.20;;;;;;5036640;28;20147;-80
2022/06/05 08:29:41;;;;;;;6.07;1.92;;;34.00;69.00;;;;;;5069692;28;20437;-80
2022/06/05 08:32:11;;;;;;;6.60;2.47;;;34.00;68.40;;;;;;5036739;28;20060;-83
2022/06/05 08:34:38;;;;;;;6.72;1.92;;;33.90;69.00;;;;;;5071168;28;20036;-79
2022/06/05 08:43:08;;;;;;;6.22;3.13;;;34.20;69.80;;;;;;5052748;28;20049;-81
2022/06/05 08:45:58;;;;;;;4.07;2.03;;;34.30;70.60;;;;;;5070829;28;20047;-81
2022/06/05 08:48:53;;;;;;;6.95;2.92;;;34.30;69.40;;;;;;5069343;28;20048;-82
2022/06/05 08:51:23;;;;;;;6.30;2.80;;;34.20;68.10;;;;;;5052990;28;20058;-81
2022/06/05 08:53:55;;;;;;;7.25;2.40;;;34.30;69.00;;;;;;5052967;28;20041;-81
2022/06/05 08:56:43;;;;;;;5.88;2.67;;;34.40;68.90;;;;;;5067157;28;20383;-82
2022/06/05 08:59:17;;;;;;;8.85;3.65;;;34.40;69.10;;;;;;5052557;28;20056;-82
2022/06/05 09:02:01;;;;;;;9.15;2.55;;;34.50;69.30;;;;;;5035540;28;20048;-83
2022/06/05 09:04:35;;;;;;;5.45;2.67;;;34.50;69.60;;;;;;5053130;28;20059;-81
2022/06/05 09:07:09;;;;;;;7.18;2.78;;;34.60;70.10;;;;;;5053009;28;20509;-80
2022/06/05 09:09:54;;;;;;;7.20;3.58;;;34.70;69.90;;;;;;5069085;28;20055;-82
2022/06/05 09:12:28;;;;;;;;;;;34.70;69.70;;;;;;5069630;28;20057;-86
2022/06/05 09:15:05;;;;;;;7.93;3.15;;;34.70;69.70;;;;;;5036748;28;20365;-86
2022/06/05 09:17:34;;;;;;;7.38;3.05;;;34.80;69.40;;;;;;5052795;28;20084;-87
2022/06/05 09:20:03;;;;;;;7.63;3.28;;;34.80;68.70;;;;;;5052753;28;20049;-86
2022/06/05 09:23:08;;;;;;;7.25;3.85;;;34.90;68.70;;;;;;5069406;28;20620;-82
2022/06/05 09:26:21;;;;;;;6.45;2.83;;;34.80;68.50;;;;;;5051576;28;20535;-84
2022/06/05 09:29:29;;;;;;;5.97;2.67;;;34.80;68.70;;;;;;5060357;28;20044;-84
2022/06/05 09:32:02;;;;;;;8.18;4.70;;;34.80;68.00;;;;;;5070451;28;20036;-83
2022/06/05 09:34:39;;;;;;;8.10;3.10;;;34.80;67.00;;;;;;5069330;28;20052;-83
2022/06/05 09:37:09;;;;;;;8.15;3.70;;;34.80;66.60;;;;;;5053110;28;20433;-84
2022/06/05 09:39:54;;;;;;;8.00;3.47;;;34.80;66.40;;;;;;5052745;28;20659;-83
2022/06/05 09:42:22;;;;;;;9.18;2.92;;;34.80;67.30;;;;;;5052077;28;20052;-84
2022/06/05 09:45:04;;;;;;;6.60;2.75;;;34.80;66.80;;;;;;5066418;28;20045;-83
2022/06/05 09:47:46;;;;;;;7.65;2.60;;;34.80;66.40;;;;;;5032238;28;20056;-84
2022/06/05 09:50:23;;;;;;;8.88;3.08;;;34.80;65.80;;;;;;5035486;28;20067;-80
2022/06/05 09:52:51;;;;;;;5.78;3.30;;;34.80;65.70;;;;;;5036784;28;20044;-84
2022/06/05 09:55:56;;;;;;;10.40;4.07;;;34.80;65.20;;;;;;5020027;28;20052;-84
2022/06/05 09:58:45;;;;;;;7.03;2.80;;;34.70;65.80;;;;;;5019755;28;20122;-85
2022/06/05 10:01:24;;;;;;;7.82;3.10;;;34.60;64.70;;;;;;5037185;28;20048;-85
2022/06/05 10:03:52;;;;;;;9.27;2.97;;;34.50;64.00;;;;;;5019933;28;20446;-84
2022/06/05 10:06:41;;;;;;;12.18;3.22;;;34.50;64.20;;;;;;5036248;28;20100;-85
2022/06/05 10:09:16;;;;;;;13.50;4.10;;;34.40;65.00;;;;;;5037613;28;20076;-85
2022/06/05 10:11:57;;;;;;;18.95;9.02;;;34.50;65.40;;;;;;5036542;28;20053;-85
2022/06/05 10:14:37;;;;;;;9.65;3.55;;;34.50;64.30;;;;;;5035959;28;20048;-86
2022/06/05 10:17:20;;;;;;;10.88;4.03;;;34.60;64.10;;;;;;5036383;28;20052;-84
2022/06/05 10:20:08;;;;;;;;;;;34.60;63.60;;;;;;5020905;28;20092;-85
2022/06/05 10:23:09;;;;;;;14.05;6.15;;;34.50;64.20;;;;;;5036439;28;19986;-85
2022/06/05 10:26:20;;;;;;;9.07;4.13;;;34.60;64.40;;;;;;5035201;28;20395;-81
2022/06/05 10:29:09;;;;;;;11.35;3.47;;;34.50;64.00;;;;;;5019018;28;20612;-81
2022/06/05 10:31:43;;;;;;;13.55;7.72;;;34.40;64.20;;;;;;5035718;28;20045;-80
2022/06/05 10:34:56;;;;;;;21.42;5.53;;;34.30;64.40;;;;;;5020082;28;20459;-83
2022/06/05 10:37:29;;;;;;;15.35;4.40;;;34.40;64.80;;;;;;5036993;28;20045;-84
2022/06/05 10:40:09;;;;;;;22.42;7.03;;;34.30;65.30;;;;;;5039290;28;20069;-84
2022/06/05 10:42:55;;;;;;;14.70;3.90;;;34.40;66.50;;;;;;5057358;28;20121;-83
2022/06/05 10:45:49;;;;;;;9.85;4.25;;;34.30;66.40;;;;;;5073085;28;20049;-83
2022/06/05 10:48:36;;;;;;;9.90;3.47;;;34.20;65.10;;;;;;5071829;28;20044;-84
2022/06/05 10:51:10;;;;;;;8.23;3.38;;;34.30;64.80;;;;;;5055757;28;20087;-84
2022/06/05 10:54:27;;;;;;;18.88;3.50;;;34.30;64.30;;;;;;5071944;28;20490;-83
2022/06/05 10:57:17;;;;;;;10.57;3.08;;;34.30;63.90;;;;;;5045368;28;20044;-86
2022/06/05 10:59:52;;;;;;;8.15;4.90;;;34.30;64.30;;;;;;5073175;28;20486;-86
2022/06/05 11:02:37;;;;;;;9.15;4.50;;;34.40;64.30;;;;;;5054652;28;20064;-84
2022/06/05 11:05:14;;;;;;;12.70;4.22;;;34.30;64.30;;;;;;5054696;28;20052;-84
2022/06/05 11:07:52;;;;;;;16.20;7.47;;;34.30;64.10;;;;;;5071952;28;20052;-83
2022/06/05 11:13:42;;;;;;;8.77;3.78;;;34.40;64.40;;;;;;5071494;28;20132;-83
2022/06/05 11:16:40;;;;;;;11.02;5.75;;;34.40;64.40;;;;;;5038614;28;20105;-83
2022/06/05 11:19:35;;;;;;;14.65;5.97;;;34.40;64.30;;;;;;5037984;28;20076;-80
2022/06/05 11:22:11;;;;;;;9.60;3.47;;;34.40;64.30;;;;;;5071192;28;20045;-78
2022/06/05 11:24:50;;;;;;;10.85;4.43;;;34.30;63.60;;;;;;5070685;28;20071;-79
2022/06/05 11:27:31;;;;;;;10.90;3.72;;;34.30;63.60;;;;;;5054604;28;20052;-80
2022/06/05 11:30:08;;;;;;;12.85;4.45;;;34.30;63.40;;;;;;5054141;28;20506;-79
2022/06/05 11:33:00;;;;;;;12.52;4.63;;;34.30;63.20;;;;;;5070169;28;20521;-79
2022/06/05 11:35:59;;;;;;;11.07;6.00;;;34.30;63.70;;;;;;5053897;28;20056;-79
2022/06/05 11:38:45;;;;;;;18.15;6.68;;;34.30;63.20;;;;;;5052675;28;20045;-78
2022/06/05 11:41:42;;;;;;;10.10;5.40;;;34.30;64.20;;;;;;5054453;28;20418;-79
2022/06/05 11:44:51;;;;;;;7.13;3.67;;;34.40;64.60;;;;;;5071208;28;20090;-78
2022/06/05 11:47:50;;;;;;;9.07;2.80;;;34.30;64.50;;;;;;5071173;28;20041;-77
2022/06/05 11:50:36;;;;;;;6.20;2.60;;;34.30;64.20;;;;;;5053953;28;20060;-80
2022/06/05 11:53:16;;;;;;;8.65;2.67;;;34.20;64.50;;;;;;5054038;28;20070;-79
2022/06/05 11:56:03;;;;;;;8.10;2.55;;;34.20;64.80;;;;;;5071728;28;20055;-78
2022/06/05 11:58:55;;;;;;;8.73;3.05;;;34.30;64.90;;;;;;5053919;28;20049;-79
2022/06/05 12:01:28;;;;;;;8.70;2.90;;;34.30;64.80;;;;;;5070434;28;20051;-79
2022/06/05 12:04:10;;;;;;;6.75;3.17;;;34.30;64.40;;;;;;5071192;28;20048;-79
2022/06/05 12:06:54;;;;;;;8.77;2.33;;;34.30;64.30;;;;;;5070043;28;20106;-79
2022/06/05 12:09:29;;;;;;;9.45;2.88;;;34.30;64.40;;;;;;5070492;28;20052;-79
2022/06/05 12:12:18;;;;;;;12.23;3.65;;;34.40;64.00;;;;;;5037220;28;20087;-79
2022/06/05 12:15:01;;;;;;;11.10;4.95;;;34.30;63.70;;;;;;5053927;28;20092;-78
2022/06/05 12:17:32;;;;;;;8.23;3.55;;;34.30;64.40;;;;;;5053574;28;20056;-78
2022/06/05 12:20:30;;;;;;;14.20;2.97;;;34.40;64.10;;;;;;5053643;28;20048;-79
2022/06/05 12:23:16;;;;;;;7.72;3.88;;;34.40;64.10;;;;;;5070838;28;20076;-79
2022/06/05 12:26:12;;;;;;;10.70;3.28;;;34.30;63.50;;;;;;5069986;28;20102;-79
2022/06/05 12:28:45;;;;;;;13.10;3.45;;;34.30;63.60;;;;;;5069231;28;20565;-79
2022/06/05 12:31:17;;;;;;;12.40;4.03;;;34.30;63.00;;;;;;5033918;28;20105;-79
2022/06/05 12:33:51;;;;;;;6.43;2.85;;;34.30;63.50;;;;;;5053294;28;20044;-81
2022/06/05 12:36:29;;;;;;;10.90;3.13;;;34.40;63.40;;;;;;5053150;28;20502;-79
2022/06/05 12:39:27;;;;;;;5.68;2.42;;;34.30;62.80;;;;;;5036234;28;20553;-80
2022/06/05 12:42:08;;;;;;;9.35;3.25;;;34.40;63.20;;;;;;5051957;28;20040;-80
2022/06/05 12:44:44;;;;;;;9.23;3.65;;;34.30;63.30;;;;;;5053147;28;20044;-78
2022/06/05 12:47:39;;;;;;;11.10;2.05;;;34.30;63.30;;;;;;5069685;28;20041;-80
2022/06/05 12:50:26;;;;;;;9.17;2.67;;;34.30;62.90;;;;;;5052973;28;20051;-79
2022/06/05 12:53:22;;;;;;;11.10;3.38;;;34.30;62.60;;;;;;5069645;28;20639;-80
2022/06/05 12:55:54;;;;;;;;;;;34.30;63.30;;;;;;5053462;28;20054;-80
2022/06/05 12:58:55;;;;;;;7.47;3.10;;;34.30;62.60;;;;;;5052460;28;20024;-78
2022/06/05 13:01:48;;;;;;;13.38;3.05;;;34.30;62.80;;;;;;5052657;28;20040;-79
2022/06/05 13:04:20;;;;;;;7.32;2.63;;;34.30;62.30;;;;;;5062244;28;20048;-80
2022/06/05 13:07:17;;;;;;;9.73;2.60;;;34.20;62.50;;;;;;5069049;28;20045;-78
2022/06/05 13:09:59;;;;;;;15.98;3.55;;;34.20;62.40;;;;;;5048842;28;20055;-77
2022/06/05 13:12:35;;;;;;;15.80;3.25;;;34.20;62.60;;;;;;5052441;28;20056;-77
2022/06/05 13:15:26;;;;;;;8.18;3.35;;;34.10;62.10;;;;;;5052826;28;20044;-76
2022/06/05 13:18:01;;;;;;;11.63;2.55;;;34.10;62.40;;;;;;5052733;28;20060;-75
2022/06/05 13:20:41;;;;;;;6.30;2.58;;;34.10;62.90;;;;;;5068789;28;20044;-76
2022/06/05 13:23:24;;;;;;;12.25;3.85;;;34.10;63.90;;;;;;5035683;28;20040;-76
2022/06/05 13:26:11;;;;;;;9.30;2.55;;;34.00;62.80;;;;;;5051969;28;20536;-77
2022/06/05 13:28:49;;;;;;;10.52;3.28;;;34.00;63.10;;;;;;5050515;28;20084;-76
2022/06/05 13:31:26;;;;;;;10.15;2.75;;;34.00;63.30;;;;;;5035458;28;20183;-77
2022/06/05 13:34:12;;;;;;;11.38;3.15;;;34.00;63.80;;;;;;5032387;28;20137;-77
2022/06/05 13:36:52;;;;;;;15.35;3.22;;;33.80;63.80;;;;;;5032694;28;20514;-79
2022/06/05 13:39:38;;;;;;;7.40;2.38;;;33.80;64.40;;;;;;5049219;28;20060;-79
2022/06/05 13:42:17;;;;;;;8.30;2.65;;;33.80;64.40;;;;;;5015982;28;20410;-80
2022/06/05 13:44:52;;;;;;;11.68;3.58;;;33.80;64.80;;;;;;5032459;28;20053;-79
2022/06/05 13:48:05;;;;;;;24.30;6.43;;;33.80;65.20;;;;;;5032145;28;20495;-78
2022/06/05 13:50:55;;;;;;;9.25;3.00;;;33.70;65.20;;;;;;5036561;28;20387;-78
2022/06/05 13:53:39;;;;;;;8.63;3.38;;;33.70;65.60;;;;;;5048843;28;20052;-79
2022/06/05 13:56:28;;;;;;;13.20;3.03;;;33.70;66.00;;;;;;5032369;28;20045;-79
2022/06/05 13:59:04;;;;;;;9.93;2.58;;;33.70;65.90;;;;;;5032336;28;20055;-79
2022/06/05 14:01:52;;;;;;;5.88;2.38;;;33.80;65.60;;;;;;5032599;28;20434;-78
2022/06/05 14:04:23;;;;;;;10.02;2.90;;;33.70;64.10;;;;;;5047843;28;20128;-78
2022/06/05 14:06:50;;;;;;;6.30;3.35;;;33.60;65.10;;;;;;5031761;28;20487;-79
2022/06/05 14:09:36;;;;;;;8.75;2.95;;;33.50;64.80;;;;;;5031900;28;20059;-83
2022/06/05 14:12:07;;;;;;;15.18;3.20;;;33.50;64.60;;;;;;5032074;28;20106;-79
2022/06/05 14:14:42;;;;;;;14.25;3.40;;;33.40;65.10;;;;;;5033532;28;20489;-79
2022/06/05 14:17:24;;;;;;;9.55;2.80;;;33.40;65.80;;;;;;5031838;28;20057;-78
2022/06/05 14:19:55;;;;;;;10.18;3.08;;;33.50;65.90;;;;;;5061095;28;20036;-77
2022/06/05 14:22:40;;;;;;;7.28;2.65;;;33.40;65.70;;;;;;5052171;28;20502;-78
2022/06/05 14:25:40;;;;;;;9.55;2.70;;;33.40;65.50;;;;;;5035701;28;20088;-78
2022/06/05 14:28:12;;;;;;;8.20;2.78;;;33.40;64.40;;;;;;5069097;28;20501;-79
2022/06/05 14:31:02;;;;;;;9.70;3.25;;;33.40;64.40;;;;;;5068299;28;20096;-78
2022/06/05 14:33:40;;;;;;;9.30;2.55;;;33.30;64.70;;;;;;5068710;28;20059;-79
2022/06/05 14:36:10;;;;;;;10.18;2.97;;;33.30;64.80;;;;;;5052584;28;20494;-79
2022/06/05 14:38:51;;;;;;;13.70;2.97;;;33.20;64.90;;;;;;5068593;28;20052;-80
2022/06/05 14:41:22;;;;;;;11.35;2.90;;;33.20;65.30;;;;;;5054700;28;20083;-79
2022/06/05 14:43:55;;;;;;;13.68;3.20;;;33.20;65.50;;;;;;5038393;28;20048;-79
2022/06/05 14:46:26;;;;;;;8.15;3.88;;;33.20;65.70;;;;;;5054767;28;20048;-79
2022/06/05 14:49:15;;;;;;;9.02;2.50;;;33.20;65.20;;;;;;5070615;28;20044;-80
2022/06/05 14:52:02;;;;;;;8.75;3.00;;;33.10;64.60;;;;;;5070269;28;20514;-78
2022/06/05 14:57:52;;;;;;;8.57;2.70;;;32.90;65.70;;;;;;5056783;28;20675;-79
2022/06/05 15:00:46;;;;;;;10.02;2.90;;;33.00;66.10;;;;;;5063735;28;20121;-78
2022/06/05 15:03:56;;;;;;;12.75;3.72;;;32.90;65.60;;;;;;5064971;28;20036;-78
2022/06/05 15:06:29;;;;;;;6.80;3.22;;;32.90;65.80;;;;;;5029363;28;20270;-79
2022/06/05 15:09:05;;;;;;;11.80;3.92;;;32.80;66.00;;;;;;5034671;28;20136;-80
2022/06/05 15:11:37;;;;;;;8.82;3.35;;;32.90;66.40;;;;;;5053087;28;20056;-81
2022/06/05 15:14:20;;;;;;;10.35;3.25;;;32.90;66.70;;;;;;5028752;28;20053;-79
2022/06/05 15:17:08;;;;;;;9.10;2.50;;;32.90;66.60;;;;;;5049276;28;20048;-80
2022/06/05 15:19:36;;;;;;;7.63;2.83;;;32.90;67.10;;;;;;5068225;28;20043;-80
2022/06/05 15:22:42;;;;;;;12.43;4.32;;;33.00;67.10;;;;;;5049547;28;20048;-79
2022/06/05 15:25:17;;;;;;;8.43;3.03;;;33.00;67.30;;;;;;5070468;28;20041;-79
2022/06/05 15:27:56;;;;;;;8.50;2.92;;;33.20;67.40;;;;;;5036819;28;20056;-79